createdAt,value
2018-08-12T00:00:31.279Z,0
2018-08-12T00:01:31.526Z,0
2018-08-12T00:02:31.570Z,0
2018-08-12T00:03:31.531Z,0
2018-08-12T00:04:32.006Z,0
2018-08-12T00:05:31.730Z,0
2018-08-12T00:06:31.716Z,0
2018-08-12T00:07:31.983Z,0
2018-08-12T00:08:31.958Z,0
2018-08-12T00:09:31.422Z,0
2018-08-12T00:10:31.941Z,0
2018-08-12T00:11:31.121Z,0
2018-08-12T00:12:31.906Z,0
2018-08-12T00:13:31.367Z,0
2018-08-12T00:14:31.875Z,0
2018-08-12T00:15:31.337Z,0
2018-08-12T00:16:31.579Z,0
2018-08-12T00:17:31.569Z,0
2018-08-12T00:18:31.560Z,0
2018-08-12T00:19:31.288Z,0
2018-08-12T00:20:31.269Z,0
2018-08-12T00:21:31.507Z,0
2018-08-12T00:22:31.782Z,0
2018-08-12T00:23:31.222Z,0
2018-08-12T00:24:31.479Z,0
2018-08-12T00:25:31.457Z,0
2018-08-12T00:26:31.181Z,0
2018-08-12T00:27:31.441Z,0
2018-08-12T00:28:31.414Z,0
2018-08-12T00:29:31.657Z,0
2018-08-12T00:30:31.656Z,0
2018-08-12T00:31:31.378Z,0
2018-08-12T00:32:31.640Z,0
2018-08-12T00:33:31.347Z,0
2018-08-12T00:34:31.066Z,0
2018-08-12T00:35:31.315Z,0
2018-08-12T00:36:31.316Z,0
2018-08-12T00:37:30.961Z,0
2018-08-12T00:38:31.286Z,0
2018-08-12T00:39:31.277Z,0
2018-08-12T00:40:31.250Z,0
2018-08-12T00:41:31.492Z,0
2018-08-12T00:42:30.952Z,0
2018-08-12T00:43:30.967Z,0
2018-08-12T00:44:30.923Z,0
2018-08-12T00:45:31.179Z,0
2018-08-12T00:46:30.892Z,0
2018-08-12T00:47:31.142Z,0
2018-08-12T00:48:30.866Z,0
2018-08-12T00:49:30.856Z,0
2018-08-12T00:50:30.575Z,0
2018-08-12T00:51:31.359Z,0
2018-08-12T00:52:31.077Z,0
2018-08-12T00:53:31.061Z,0
2018-08-12T00:54:30.775Z,0
2018-08-12T00:55:31.029Z,0
2018-08-12T00:56:30.752Z,0
2018-08-12T00:57:30.738Z,0
2018-08-12T00:58:31.001Z,0
2018-08-12T00:59:31.235Z,0
2018-08-12T01:00:30.697Z,0
2018-08-12T01:01:30.688Z,0
2018-08-12T01:02:30.699Z,0
2018-08-12T01:03:31.219Z,0
2018-08-12T01:04:30.905Z,0
2018-08-12T01:05:30.615Z,0
2018-08-12T01:06:30.604Z,0
2018-08-12T01:07:31.125Z,0
2018-08-12T01:08:30.846Z,0
2018-08-12T01:09:31.092Z,0
2018-08-12T01:10:30.555Z,0
2018-08-12T01:11:30.541Z,0
2018-08-12T01:12:30.822Z,0
2018-08-12T01:13:30.511Z,0
2018-08-12T01:14:31.021Z,0
2018-08-12T01:15:30.742Z,0
2018-08-12T01:16:30.477Z,0
2018-08-12T01:17:30.709Z,0
2018-08-12T01:18:30.698Z,0
2018-08-12T01:19:30.421Z,0
2018-08-12T01:20:30.147Z,0
2018-08-12T01:21:30.682Z,0
2018-08-12T01:22:30.125Z,0
2018-08-12T01:23:30.629Z,0
2018-08-12T01:24:30.617Z,0
2018-08-12T01:25:30.607Z,0
2018-08-12T01:26:30.326Z,0
2018-08-12T01:27:30.307Z,0
2018-08-12T01:28:30.577Z,0
2018-08-12T01:29:30.279Z,0
2018-08-12T01:30:30.527Z,0
2018-08-12T01:31:30.277Z,0
2018-08-12T01:32:30.498Z,0
2018-08-12T01:33:30.756Z,0
2018-08-12T01:34:30.745Z,0
2018-08-12T01:35:30.469Z,0
2018-08-12T01:36:30.180Z,0
2018-08-12T01:37:30.701Z,0
2018-08-12T01:38:30.474Z,0
2018-08-12T01:39:30.672Z,0
2018-08-12T01:40:30.395Z,0
2018-08-12T01:41:30.110Z,0
2018-08-12T01:42:30.096Z,0
2018-08-12T01:43:30.076Z,0
2018-08-12T01:44:29.801Z,0
2018-08-12T01:45:30.312Z,0
2018-08-12T01:46:30.298Z,0
2018-08-12T01:47:30.292Z,0
2018-08-12T01:48:30.271Z,0
2018-08-12T01:49:30.260Z,0
2018-08-12T01:50:30.243Z,0
2018-08-12T01:51:30.224Z,0
2018-08-12T01:52:29.942Z,0
2018-08-12T01:53:29.933Z,0
2018-08-12T01:54:29.911Z,0
2018-08-12T01:55:29.904Z,0
2018-08-12T01:56:30.158Z,0
2018-08-12T01:57:29.876Z,0
2018-08-12T01:58:30.390Z,0
2018-08-12T01:59:30.108Z,0
2018-08-12T02:00:30.358Z,0
2018-08-12T02:01:30.076Z,0
2018-08-12T02:02:29.546Z,0
2018-08-12T02:03:29.785Z,0
2018-08-12T02:04:30.035Z,0
2018-08-12T02:05:30.293Z,0
2018-08-12T02:06:29.482Z,0
2018-08-12T02:07:29.731Z,0
2018-08-12T02:08:30.234Z,0
2018-08-12T02:09:30.225Z,0
2018-08-12T02:10:30.206Z,0
2018-08-12T02:11:29.408Z,0
2018-08-12T02:12:30.186Z,0
2018-08-12T02:13:29.905Z,0
2018-08-12T02:14:29.886Z,0
2018-08-12T02:15:29.613Z,0
2018-08-12T02:16:29.595Z,0
2018-08-12T02:17:29.853Z,0
2018-08-12T02:18:29.835Z,0
2018-08-12T02:19:29.550Z,0
2018-08-12T02:20:29.543Z,0
2018-08-12T02:21:29.518Z,0
2018-08-12T02:22:29.508Z,0
2018-08-12T02:23:30.014Z,0
2018-08-12T02:24:29.743Z,0
2018-08-12T02:25:29.721Z,0
2018-08-12T02:26:29.450Z,0
2018-08-12T02:27:29.495Z,0
2018-08-12T02:28:29.680Z,0
2018-08-12T02:29:29.670Z,0
2018-08-12T02:30:29.657Z,0
2018-08-12T02:31:29.650Z,0
2018-08-12T02:32:29.622Z,0
2018-08-12T02:33:29.357Z,0
2018-08-12T02:34:29.613Z,0
2018-08-12T02:35:29.585Z,0
2018-08-12T02:36:29.305Z,0
2018-08-12T02:37:29.494Z,0
2018-08-12T02:38:29.822Z,0
2018-08-12T02:39:29.530Z,0
2018-08-12T02:40:29.244Z,0
2018-08-12T02:41:29.494Z,0
2018-08-12T02:42:29.478Z,0
2018-08-12T02:43:29.196Z,0
2018-08-12T02:44:29.706Z,0
2018-08-12T02:45:29.428Z,0
2018-08-12T02:46:29.417Z,0
2018-08-12T02:47:29.139Z,0
2018-08-12T02:48:29.405Z,0
2018-08-12T02:49:29.121Z,0
2018-08-12T02:50:29.385Z,0
2018-08-12T02:51:29.338Z,0
2018-08-12T02:52:29.065Z,0
2018-08-12T02:53:29.312Z,0
2018-08-12T02:54:29.564Z,0
2018-08-12T02:55:29.292Z,0
2018-08-12T02:56:29.267Z,0
2018-08-12T02:57:29.254Z,0
2018-08-12T02:58:29.251Z,0
2018-08-12T02:59:28.701Z,0
2018-08-12T03:00:29.213Z,0
2018-08-12T03:01:28.924Z,0
2018-08-12T03:02:29.451Z,0
2018-08-12T03:03:29.446Z,0
2018-08-12T03:04:28.620Z,0
2018-08-12T03:05:29.402Z,0
2018-08-12T03:06:29.386Z,0
2018-08-12T03:07:28.583Z,0
2018-08-12T03:08:28.826Z,0
2018-08-12T03:09:28.820Z,0
2018-08-12T03:10:28.794Z,0
2018-08-12T03:11:29.049Z,0
2018-08-12T03:12:29.303Z,0
2018-08-12T03:13:29.290Z,0
2018-08-12T03:14:28.740Z,0
2018-08-12T03:15:29.261Z,0
2018-08-12T03:16:28.439Z,0
2018-08-12T03:17:28.955Z,0
2018-08-12T03:18:28.938Z,0
2018-08-12T03:19:28.698Z,0
2018-08-12T03:20:28.947Z,0
2018-08-12T03:21:28.632Z,0
2018-08-12T03:22:29.403Z,0
2018-08-12T03:23:28.597Z,0
2018-08-12T03:24:29.120Z,0
2018-08-12T03:25:28.580Z,0
2018-08-12T03:26:28.828Z,0
2018-08-12T03:27:28.807Z,0
2018-08-12T03:28:29.054Z,0
2018-08-12T03:29:28.778Z,0
2018-08-12T03:30:28.242Z,0
2018-08-12T03:31:29.032Z,0
2018-08-12T03:32:28.771Z,0
2018-08-12T03:33:28.721Z,0
2018-08-12T03:34:28.714Z,0
2018-08-12T03:35:28.427Z,0
2018-08-12T03:36:28.670Z,0
2018-08-12T03:37:28.395Z,0
2018-08-12T03:38:28.377Z,0
2018-08-12T03:39:28.900Z,0
2018-08-12T03:40:28.933Z,4
2018-08-12T03:41:28.592Z,4
2018-08-12T03:42:28.576Z,0
2018-08-12T03:43:28.042Z,4
2018-08-12T03:44:28.823Z,4
2018-08-12T03:45:28.274Z,8
2018-08-12T03:46:28.005Z,4
2018-08-12T03:47:28.247Z,8
2018-08-12T03:48:28.761Z,8
2018-08-12T03:49:28.743Z,8
2018-08-12T03:50:27.981Z,12
2018-08-12T03:51:28.178Z,12
2018-08-12T03:52:28.689Z,16
2018-08-12T03:53:28.154Z,16
2018-08-12T03:54:28.665Z,20
2018-08-12T03:55:28.384Z,20
2018-08-12T03:56:28.367Z,24
2018-08-12T03:57:27.826Z,28
2018-08-12T03:58:28.080Z,32
2018-08-12T03:59:28.064Z,32
2018-08-12T04:00:28.311Z,40
2018-08-12T04:01:28.311Z,44
2018-08-12T04:02:28.941Z,44
2018-08-12T04:03:28.016Z,52
2018-08-12T04:04:27.984Z,56
2018-08-12T04:05:27.708Z,64
2018-08-12T04:06:28.487Z,72
2018-08-12T04:07:28.469Z,80
2018-08-12T04:08:28.450Z,84
2018-08-12T04:09:27.910Z,92
2018-08-12T04:10:28.432Z,100
2018-08-12T04:11:27.877Z,108
2018-08-12T04:12:28.121Z,116
2018-08-12T04:13:27.866Z,128
2018-08-12T04:14:28.364Z,140
2018-08-12T04:15:28.078Z,148
2018-08-12T04:16:28.074Z,156
2018-08-12T04:17:27.798Z,168
2018-08-12T04:18:27.771Z,184
2018-08-12T04:19:28.284Z,196
2018-08-12T04:20:28.031Z,208
2018-08-12T04:21:28.000Z,224
2018-08-12T04:22:27.708Z,236
2018-08-12T04:23:27.705Z,252
2018-08-12T04:24:28.219Z,268
2018-08-12T04:25:27.672Z,280
2018-08-12T04:26:28.197Z,296
2018-08-12T04:27:27.638Z,312
2018-08-12T04:28:27.613Z,324
2018-08-12T04:29:28.127Z,344
2018-08-12T04:30:27.596Z,356
2018-08-12T04:31:27.578Z,372
2018-08-12T04:32:27.820Z,388
2018-08-12T04:33:27.541Z,404
2018-08-12T04:34:27.793Z,424
2018-08-12T04:35:28.054Z,440
2018-08-12T04:36:28.022Z,456
2018-08-12T04:37:28.218Z,472
2018-08-12T04:38:27.997Z,488
2018-08-12T04:39:27.458Z,508
2018-08-12T04:40:27.705Z,520
2018-08-12T04:41:27.684Z,540
2018-08-12T04:42:27.407Z,556
2018-08-12T04:43:27.660Z,580
2018-08-12T04:44:27.661Z,600
2018-08-12T04:45:27.620Z,628
2018-08-12T04:46:27.344Z,660
2018-08-12T04:47:27.589Z,688
2018-08-12T04:48:27.865Z,716
2018-08-12T04:49:27.583Z,740
2018-08-12T04:50:27.611Z,768
2018-08-12T04:51:27.807Z,796
2018-08-12T04:52:27.518Z,816
2018-08-12T04:53:27.777Z,840
2018-08-12T04:54:27.288Z,868
2018-08-12T04:55:27.468Z,900
2018-08-12T04:56:27.194Z,920
2018-08-12T04:57:27.446Z,944
2018-08-12T04:58:27.166Z,972
2018-08-12T04:59:27.776Z,992
2018-08-12T05:00:27.401Z,1008
2018-08-12T05:01:27.649Z,1024
2018-08-12T05:02:27.375Z,1040
2018-08-12T05:03:27.115Z,1064
2018-08-12T05:04:27.075Z,1096
2018-08-12T05:05:27.334Z,1136
2018-08-12T05:06:27.310Z,1168
2018-08-12T05:07:27.037Z,1192
2018-08-12T05:08:27.280Z,1212
2018-08-12T05:09:27.530Z,1236
2018-08-12T05:10:26.984Z,1252
2018-08-12T05:11:26.734Z,1264
2018-08-12T05:12:27.487Z,1264
2018-08-12T05:13:26.943Z,1264
2018-08-12T05:14:27.193Z,1268
2018-08-12T05:15:27.180Z,1268
2018-08-12T05:16:26.898Z,1268
2018-08-12T05:17:27.416Z,1268
2018-08-12T05:18:26.869Z,1272
2018-08-12T05:19:26.871Z,1272
2018-08-12T05:20:26.583Z,1276
2018-08-12T05:21:27.360Z,1284
2018-08-12T05:22:27.068Z,1284
2018-08-12T05:23:27.058Z,1288
2018-08-12T05:24:27.036Z,1296
2018-08-12T05:25:26.775Z,1296
2018-08-12T05:26:27.276Z,1300
2018-08-12T05:27:27.265Z,1296
2018-08-12T05:28:26.994Z,1296
2018-08-12T05:29:26.976Z,1308
2018-08-12T05:30:27.225Z,1324
2018-08-12T05:31:26.413Z,1324
2018-08-12T05:32:27.243Z,1324
2018-08-12T05:33:26.653Z,1332
2018-08-12T05:34:26.634Z,1336
2018-08-12T05:35:26.891Z,1336
2018-08-12T05:36:26.881Z,1348
2018-08-12T05:37:26.860Z,1352
2018-08-12T05:38:26.581Z,1364
2018-08-12T05:39:27.096Z,1368
2018-08-12T05:40:26.808Z,1376
2018-08-12T05:41:26.545Z,1388
2018-08-12T05:42:26.567Z,1404
2018-08-12T05:43:26.532Z,1416
2018-08-12T05:44:27.016Z,1428
2018-08-12T05:45:26.480Z,1432
2018-08-12T05:46:26.468Z,1444
2018-08-12T05:47:26.985Z,1456
2018-08-12T05:48:26.436Z,1464
2018-08-12T05:49:26.423Z,1480
2018-08-12T05:50:26.156Z,1480
2018-08-12T05:51:27.156Z,1484
2018-08-12T05:52:26.384Z,1496
2018-08-12T05:53:26.629Z,1500
2018-08-12T05:54:26.625Z,1504
2018-08-12T05:55:26.341Z,1516
2018-08-12T05:56:26.854Z,1520
2018-08-12T05:57:26.795Z,1532
2018-08-12T05:58:26.312Z,1536
2018-08-12T05:59:26.023Z,1548
2018-08-12T06:00:26.794Z,1560
2018-08-12T06:01:26.570Z,1572
2018-08-12T06:02:26.783Z,1576
2018-08-12T06:03:26.535Z,1584
2018-08-12T06:04:26.500Z,1604
2018-08-12T06:05:26.460Z,1624
2018-08-12T06:06:26.448Z,1648
2018-08-12T06:07:26.435Z,1672
2018-08-12T06:08:26.157Z,1692
2018-08-12T06:09:26.429Z,1700
2018-08-12T06:10:26.653Z,1728
2018-08-12T06:11:26.590Z,1744
2018-08-12T06:12:26.370Z,1760
2018-08-12T06:13:26.673Z,1760
2018-08-12T06:14:26.078Z,1768
2018-08-12T06:15:26.613Z,1760
2018-08-12T06:16:26.329Z,1760
2018-08-12T06:17:26.935Z,1752
2018-08-12T06:18:26.028Z,1740
2018-08-12T06:19:26.007Z,1728
2018-08-12T06:20:25.995Z,1716
2018-08-12T06:21:26.512Z,1700
2018-08-12T06:22:25.722Z,1688
2018-08-12T06:23:26.233Z,1680
2018-08-12T06:24:26.472Z,1668
2018-08-12T06:25:26.204Z,1660
2018-08-12T06:26:26.402Z,1656
2018-08-12T06:27:25.907Z,1656
2018-08-12T06:28:26.471Z,1652
2018-08-12T06:29:26.142Z,1644
2018-08-12T06:30:26.156Z,1636
2018-08-12T06:31:26.494Z,1640
2018-08-12T06:32:25.872Z,1640
2018-08-12T06:33:25.822Z,1652
2018-08-12T06:34:26.485Z,1660
2018-08-12T06:35:26.063Z,1680
2018-08-12T06:36:25.782Z,1700
2018-08-12T06:37:25.996Z,1720
2018-08-12T06:38:26.052Z,1724
2018-08-12T06:39:25.752Z,1724
2018-08-12T06:40:26.044Z,1732
2018-08-12T06:41:25.995Z,1736
2018-08-12T06:42:25.462Z,1744
2018-08-12T06:43:25.954Z,1744
2018-08-12T06:44:25.945Z,1744
2018-08-12T06:45:25.679Z,1748
2018-08-12T06:46:26.383Z,1752
2018-08-12T06:47:25.912Z,1756
2018-08-12T06:48:26.216Z,1764
2018-08-12T06:49:25.878Z,1772
2018-08-12T06:50:25.867Z,1772
2018-08-12T06:51:25.324Z,1776
2018-08-12T06:52:25.848Z,1780
2018-08-12T06:53:25.834Z,1788
2018-08-12T06:54:25.298Z,1792
2018-08-12T06:55:25.805Z,1800
2018-08-12T06:56:25.556Z,1804
2018-08-12T06:57:25.512Z,1808
2018-08-12T06:58:25.784Z,1820
2018-08-12T06:59:25.492Z,1828
2018-08-12T07:00:25.607Z,1832
2018-08-12T07:01:25.490Z,1840
2018-08-12T07:02:25.722Z,1848
2018-08-12T07:03:25.445Z,1856
2018-08-12T07:04:25.698Z,1868
2018-08-12T07:05:25.420Z,1876
2018-08-12T07:06:25.683Z,1888
2018-08-12T07:07:25.665Z,1900
2018-08-12T07:08:25.648Z,1912
2018-08-12T07:09:25.905Z,1920
2018-08-12T07:10:25.896Z,1936
2018-08-12T07:11:25.630Z,1948
2018-08-12T07:12:25.866Z,1960
2018-08-12T07:13:25.385Z,1980
2018-08-12T07:14:25.792Z,1996
2018-08-12T07:15:25.297Z,2012
2018-08-12T07:16:25.284Z,2028
2018-08-12T07:17:25.549Z,2044
2018-08-12T07:18:25.835Z,2060
2018-08-12T07:19:25.519Z,2080
2018-08-12T07:20:24.975Z,2096
2018-08-12T07:21:25.492Z,2128
2018-08-12T07:22:25.745Z,2184
2018-08-12T07:23:25.212Z,2244
2018-08-12T07:24:25.763Z,2284
2018-08-12T07:25:25.235Z,2328
2018-08-12T07:26:25.715Z,2368
2018-08-12T07:27:24.901Z,2424
2018-08-12T07:28:25.151Z,2484
2018-08-12T07:29:25.665Z,2524
2018-08-12T07:30:25.124Z,2568
2018-08-12T07:31:25.384Z,2624
2018-08-12T07:32:25.125Z,2696
2018-08-12T07:33:25.511Z,2808
2018-08-12T07:34:25.085Z,2972
2018-08-12T07:35:25.341Z,3176
2018-08-12T07:36:25.336Z,3432
2018-08-12T07:37:25.313Z,3744
2018-08-12T07:38:25.309Z,3984
2018-08-12T07:39:25.039Z,4084
2018-08-12T07:40:25.278Z,4516
2018-08-12T07:41:25.028Z,4824
2018-08-12T07:42:25.270Z,4780
2018-08-12T07:43:25.527Z,4924
2018-08-12T07:44:25.239Z,5404
2018-08-12T07:45:25.238Z,5576
2018-08-12T07:46:25.220Z,6020
2018-08-12T07:47:24.940Z,6300
2018-08-12T07:48:25.461Z,6032
2018-08-12T07:49:25.191Z,6384
2018-08-12T07:50:24.654Z,6364
2018-08-12T07:51:24.903Z,6040
2018-08-12T07:52:25.156Z,5784
2018-08-12T07:53:25.147Z,5660
2018-08-12T07:54:25.141Z,5736
2018-08-12T07:55:24.621Z,5264
2018-08-12T07:56:25.393Z,4992
2018-08-12T07:57:24.854Z,5264
2018-08-12T07:58:24.851Z,5180
2018-08-12T07:59:24.827Z,4704
2018-08-12T08:00:25.360Z,4584
2018-08-12T08:01:24.812Z,4452
2018-08-12T08:02:24.537Z,4452
2018-08-12T08:03:25.047Z,4200
2018-08-12T08:04:25.044Z,4348
2018-08-12T08:05:25.295Z,4500
2018-08-12T08:06:24.939Z,4756
2018-08-12T08:07:25.019Z,4808
2018-08-12T08:08:24.768Z,4864
2018-08-12T08:09:24.521Z,4900
2018-08-12T08:10:24.732Z,4984
2018-08-12T08:11:24.977Z,4916
2018-08-12T08:12:25.016Z,4984
2018-08-12T08:13:25.009Z,5128
2018-08-12T08:14:24.691Z,5376
2018-08-12T08:15:25.199Z,5676
2018-08-12T08:16:25.193Z,5756
2018-08-12T08:17:24.405Z,6556
2018-08-12T08:18:24.651Z,14028
2018-08-12T08:19:24.909Z,10084
2018-08-12T08:20:24.899Z,8256
2018-08-12T08:21:24.882Z,40032
2018-08-12T08:22:24.893Z,19616
2018-08-12T08:23:24.878Z,8184
2018-08-12T08:24:24.872Z,6728
2018-08-12T08:25:24.734Z,7184
2018-08-12T08:26:25.124Z,8076
2018-08-12T08:27:24.312Z,7508
2018-08-12T08:28:24.835Z,7020
2018-08-12T08:29:24.822Z,7664
2018-08-12T08:30:24.808Z,7328
2018-08-12T08:31:25.413Z,6708
2018-08-12T08:32:25.384Z,9064
2018-08-12T08:33:24.528Z,8020
2018-08-12T08:34:25.044Z,5464
2018-08-12T08:35:24.245Z,5456
2018-08-12T08:36:25.027Z,4952
2018-08-12T08:37:24.602Z,5004
2018-08-12T08:38:24.956Z,5340
2018-08-12T08:39:24.749Z,5436
2018-08-12T08:40:24.473Z,5488
2018-08-12T08:41:24.991Z,5216
2018-08-12T08:42:24.456Z,5352
2018-08-12T08:43:24.980Z,5448
2018-08-12T08:44:24.442Z,5804
2018-08-12T08:45:24.689Z,5932
2018-08-12T08:46:24.681Z,5636
2018-08-12T08:47:24.417Z,6488
2018-08-12T08:48:24.675Z,23488
2018-08-12T08:49:24.398Z,18944
2018-08-12T08:50:24.677Z,15248
2018-08-12T08:51:24.910Z,7508
2018-08-12T08:52:24.373Z,6828
2018-08-12T08:53:24.098Z,5048
2018-08-12T08:54:24.906Z,5332
2018-08-12T08:55:24.091Z,4988
2018-08-12T08:56:24.879Z,4772
2018-08-12T08:57:24.594Z,4732
2018-08-12T08:58:24.325Z,4744
2018-08-12T08:59:24.850Z,4780
2018-08-12T09:00:24.589Z,6592
2018-08-12T09:01:24.797Z,8836
2018-08-12T09:02:24.292Z,13684
2018-08-12T09:03:24.555Z,12884
2018-08-12T09:04:24.825Z,7356
2018-08-12T09:05:24.584Z,6604
2018-08-12T09:06:24.275Z,5280
2018-08-12T09:07:24.522Z,5532
2018-08-12T09:08:24.784Z,6860
2018-08-12T09:09:24.250Z,5636
2018-08-12T09:10:24.235Z,7212
2018-08-12T09:11:24.492Z,13880
2018-08-12T09:12:24.219Z,5796
2018-08-12T09:13:24.487Z,5840
2018-08-12T09:14:24.743Z,5876
2018-08-12T09:15:24.208Z,5816
2018-08-12T09:16:24.715Z,5868
2018-08-12T09:17:24.447Z,5868
2018-08-12T09:18:24.677Z,5912
2018-08-12T09:19:24.176Z,5752
2018-08-12T09:20:23.901Z,5776
2018-08-12T09:21:24.413Z,5912
2018-08-12T09:22:24.412Z,5776
2018-08-12T09:23:24.408Z,5752
2018-08-12T09:24:24.136Z,5664
2018-08-12T09:25:24.125Z,5600
2018-08-12T09:26:24.390Z,5624
2018-08-12T09:27:24.377Z,5648
2018-08-12T09:28:24.637Z,5644
2018-08-12T09:29:24.365Z,5536
2018-08-12T09:30:24.082Z,5532
2018-08-12T09:31:24.353Z,5392
2018-08-12T09:32:24.083Z,5328
2018-08-12T09:33:23.806Z,5344
2018-08-12T09:34:23.799Z,5352
2018-08-12T09:35:23.792Z,5332
2018-08-12T09:36:24.311Z,5316
2018-08-12T09:37:24.040Z,5480
2018-08-12T09:38:24.025Z,5212
2018-08-12T09:39:24.028Z,5200
2018-08-12T09:40:24.603Z,5176
2018-08-12T09:41:24.284Z,5196
2018-08-12T09:42:24.267Z,5208
2018-08-12T09:43:24.259Z,5216
2018-08-12T09:44:24.516Z,5288
2018-08-12T09:45:24.308Z,5780
2018-08-12T09:46:24.242Z,5676
2018-08-12T09:47:24.246Z,5576
2018-08-12T09:48:23.957Z,5712
2018-08-12T09:49:23.948Z,5452
2018-08-12T09:50:24.219Z,7476
2018-08-12T09:51:24.109Z,6648
2018-08-12T09:52:24.463Z,6412
2018-08-12T09:53:23.659Z,6548
2018-08-12T09:54:24.229Z,6668
2018-08-12T09:55:23.966Z,6916
2018-08-12T09:56:24.190Z,7984
2018-08-12T09:57:24.171Z,7260
2018-08-12T09:58:24.254Z,7336
2018-08-12T09:59:24.411Z,7884
2018-08-12T10:00:24.961Z,7444
2018-08-12T10:01:24.126Z,7532
2018-08-12T10:02:24.116Z,7572
2018-08-12T10:03:24.112Z,8756
2018-08-12T10:04:24.115Z,9768
2018-08-12T10:05:24.216Z,7704
2018-08-12T10:06:24.379Z,8520
2018-08-12T10:07:24.537Z,11252
2018-08-12T10:08:23.818Z,10748
2018-08-12T10:09:23.874Z,8388
2018-08-12T10:10:23.803Z,9612
2018-08-12T10:11:24.075Z,8328
2018-08-12T10:12:23.789Z,10648
2018-08-12T10:13:24.048Z,8908
2018-08-12T10:14:24.046Z,10440
2018-08-12T10:15:24.042Z,10700
2018-08-12T10:16:24.034Z,17752
2018-08-12T10:17:23.770Z,10792
2018-08-12T10:18:23.756Z,10452
2018-08-12T10:19:24.024Z,9380
2018-08-12T10:20:24.276Z,7600
2018-08-12T10:21:24.044Z,8280
2018-08-12T10:22:23.994Z,7576
2018-08-12T10:23:24.252Z,7844
2018-08-12T10:24:23.982Z,7820
2018-08-12T10:25:23.986Z,8472
2018-08-12T10:26:24.237Z,33184
2018-08-12T10:27:23.966Z,17472
2018-08-12T10:28:23.693Z,25056
2018-08-12T10:29:24.666Z,11508
2018-08-12T10:30:23.948Z,54592
2018-08-12T10:31:23.944Z,15888
2018-08-12T10:32:23.673Z,21920
2018-08-12T10:33:23.923Z,10624
2018-08-12T10:34:23.399Z,18208
2018-08-12T10:35:24.195Z,35680
2018-08-12T10:36:23.393Z,79808
2018-08-12T10:37:23.923Z,84160
2018-08-12T10:38:23.596Z,72864
2018-08-12T10:39:23.648Z,38656
2018-08-12T10:40:23.640Z,60480
2018-08-12T10:41:23.627Z,81376
2018-08-12T10:42:23.632Z,65728
2018-08-12T10:43:23.625Z,73760
2018-08-12T10:44:24.142Z,70176
2018-08-12T10:45:23.620Z,68256
2018-08-12T10:46:23.940Z,64160
2018-08-12T10:47:23.880Z,70880
2018-08-12T10:48:23.881Z,75424
2018-08-12T10:49:23.883Z,84928
2018-08-12T10:50:23.880Z,92032
2018-08-12T10:51:23.905Z,100192
2018-08-12T10:52:24.162Z,102560
2018-08-12T10:53:23.942Z,100384
2018-08-12T10:54:24.205Z,95424
2018-08-12T10:55:23.902Z,87392
2018-08-12T10:56:23.365Z,82368
2018-08-12T10:57:24.166Z,71552
2018-08-12T10:58:24.159Z,87648
2018-08-12T10:59:24.042Z,71040
2018-08-12T11:00:23.635Z,78912
2018-08-12T11:01:23.901Z,54112
2018-08-12T11:02:23.900Z,87840
2018-08-12T11:03:23.644Z,69472
2018-08-12T11:04:23.950Z,85376
2018-08-12T11:05:24.171Z,80096
2018-08-12T11:06:23.913Z,78848
2018-08-12T11:07:23.716Z,65312
2018-08-12T11:08:23.922Z,49728
2018-08-12T11:09:23.396Z,63264
2018-08-12T11:10:23.668Z,67552
2018-08-12T11:11:23.669Z,76992
2018-08-12T11:12:23.779Z,82528
2018-08-12T11:13:23.952Z,80608
2018-08-12T11:14:23.672Z,74112
2018-08-12T11:15:24.009Z,69536
2018-08-12T11:16:23.980Z,73216
2018-08-12T11:17:24.278Z,66368
2018-08-12T11:18:23.696Z,40128
2018-08-12T11:19:24.030Z,51776
2018-08-12T11:20:24.464Z,60800
2018-08-12T11:21:24.138Z,62240
2018-08-12T11:22:24.303Z,56128
2018-08-12T11:23:24.252Z,52832
2018-08-12T11:24:23.779Z,79040
2018-08-12T11:25:24.011Z,77952
2018-08-12T11:26:23.732Z,82816
2018-08-12T11:27:24.000Z,86048
2018-08-12T11:28:24.079Z,84416
2018-08-12T11:29:24.146Z,88800
2018-08-12T11:30:24.298Z,77920
2018-08-12T11:32:23.789Z,87328
2018-08-12T11:33:24.293Z,91680
2018-08-12T11:34:24.052Z,86144
2018-08-12T11:35:24.072Z,81312
2018-08-12T11:36:24.314Z,65184
2018-08-12T11:37:24.068Z,71136
2018-08-12T11:38:24.052Z,71488
2018-08-12T11:39:24.045Z,74432
2018-08-12T11:40:24.323Z,76384
2018-08-12T11:41:24.250Z,75584
2018-08-12T11:42:23.802Z,79584
2018-08-12T11:43:24.333Z,82656
2018-08-12T11:44:24.342Z,64128
2018-08-12T11:45:24.085Z,17184
2018-08-12T11:46:24.085Z,82304
2018-08-12T11:47:24.460Z,88256
2018-08-12T11:48:24.375Z,87488
2018-08-12T11:49:23.834Z,85440
2018-08-12T11:50:23.861Z,85696
2018-08-12T11:51:24.297Z,82400
2018-08-12T11:52:23.851Z,75616
2018-08-12T11:53:24.121Z,71936
2018-08-12T11:54:23.608Z,73440
2018-08-12T11:55:24.395Z,75264
2018-08-12T11:56:24.130Z,77472
2018-08-12T11:57:24.668Z,80416
2018-08-12T11:58:24.425Z,87136
2018-08-12T11:59:24.421Z,85568
2018-08-12T12:00:24.443Z,90112
2018-08-12T12:01:23.904Z,89376
2018-08-12T12:02:24.351Z,89568
2018-08-12T12:03:24.442Z,86944
2018-08-12T12:04:24.359Z,82592
2018-08-12T12:05:23.922Z,83136
2018-08-12T12:06:24.245Z,85472
2018-08-12T12:07:24.201Z,89760
2018-08-12T12:08:23.947Z,90816
2018-08-12T12:09:24.484Z,90880
2018-08-12T12:10:24.228Z,83232
2018-08-12T12:11:24.233Z,85760
2018-08-12T12:12:24.235Z,83264
2018-08-12T12:13:24.499Z,80224
2018-08-12T12:14:24.244Z,76992
2018-08-12T12:15:24.283Z,74080
2018-08-12T12:16:23.992Z,74272
2018-08-12T12:17:24.543Z,76448
2018-08-12T12:18:24.004Z,79168
2018-08-12T12:19:24.276Z,83584
2018-08-12T12:20:24.196Z,85664
2018-08-12T12:21:24.299Z,87776
2018-08-12T12:22:24.310Z,87328
2018-08-12T12:23:24.040Z,83168
2018-08-12T12:24:24.347Z,84160
2018-08-12T12:25:24.318Z,81024
2018-08-12T12:26:24.346Z,80480
2018-08-12T12:27:24.081Z,76448
2018-08-12T12:28:24.340Z,78080
2018-08-12T12:29:24.611Z,79200
2018-08-12T12:30:24.363Z,73408
2018-08-12T12:31:24.391Z,77056
2018-08-12T12:32:24.649Z,82112
2018-08-12T12:33:24.118Z,80704
2018-08-12T12:34:24.136Z,81984
2018-08-12T12:35:24.493Z,79008
2018-08-12T12:36:24.408Z,76288
2018-08-12T12:37:24.408Z,77024
2018-08-12T12:38:24.083Z,75392
2018-08-12T12:39:23.889Z,71424
2018-08-12T12:40:24.430Z,64480
2018-08-12T12:41:24.165Z,68640
2018-08-12T12:42:24.451Z,68608
2018-08-12T12:43:24.183Z,70912
2018-08-12T12:44:24.193Z,68000
2018-08-12T12:45:24.237Z,72064
2018-08-12T12:46:24.469Z,77760
2018-08-12T12:47:24.213Z,74496
2018-08-12T12:48:24.215Z,73856
2018-08-12T12:49:24.554Z,68576
2018-08-12T12:50:24.572Z,64864
2018-08-12T12:51:24.505Z,62560
2018-08-12T12:52:24.499Z,62240
2018-08-12T12:53:24.250Z,58816
2018-08-12T12:54:24.784Z,62528
2018-08-12T12:55:24.266Z,67808
2018-08-12T12:56:24.816Z,68064
2018-08-12T12:57:24.786Z,75872
2018-08-12T12:58:24.552Z,75488
2018-08-12T12:59:24.417Z,67488
2018-08-12T13:00:24.646Z,67776
2018-08-12T13:01:24.896Z,67136
2018-08-12T13:02:24.335Z,69984
2018-08-12T13:03:24.646Z,71584
2018-08-12T13:04:24.841Z,76192
2018-08-12T13:05:24.855Z,88480
2018-08-12T13:06:24.070Z,87008
2018-08-12T13:07:24.874Z,88128
2018-08-12T13:08:24.610Z,85568
2018-08-12T13:09:24.347Z,82432
2018-08-12T13:10:24.620Z,80160
2018-08-12T13:11:24.378Z,79136
2018-08-12T13:12:24.444Z,80320
2018-08-12T13:13:24.639Z,78528
2018-08-12T13:14:24.643Z,87232
2018-08-12T13:15:24.919Z,87776
2018-08-12T13:16:24.661Z,85408
2018-08-12T13:17:24.670Z,78752
2018-08-12T13:18:24.930Z,77504
2018-08-12T13:19:24.408Z,76832
2018-08-12T13:20:24.949Z,74048
2018-08-12T13:21:24.689Z,78720
2018-08-12T13:22:24.450Z,79392
2018-08-12T13:23:24.435Z,79328
2018-08-12T13:24:24.176Z,82144
2018-08-12T13:25:24.714Z,79456
2018-08-12T13:26:24.490Z,73024
2018-08-12T13:27:24.794Z,73568
2018-08-12T13:28:24.993Z,76448
2018-08-12T13:29:25.015Z,74560
2018-08-12T13:30:25.009Z,68480
2018-08-12T13:31:24.486Z,69824
2018-08-12T13:32:25.018Z,67808
2018-08-12T13:33:24.757Z,79616
2018-08-12T13:34:24.766Z,81984
2018-08-12T13:35:25.039Z,80544
2018-08-12T13:36:24.512Z,72384
2018-08-12T13:37:24.519Z,62112
2018-08-12T13:38:25.048Z,56928